sensor_id;sensor_type;location;lat;lon;timestamp;P1;durP1;ratioP1;P2;durP2;ratioP2
29168;SDS011;16219;42.864;23.360;2023-03-21T00:00:36;2.07;;;1.90;;
29168;SDS011;16219;42.864;23.360;2023-03-21T00:03:04;6.55;;;3.28;;
29168;SDS011;16219;42.864;23.360;2023-03-21T00:05:31;11.43;;;3.75;;
29168;SDS011;16219;42.864;23.360;2023-03-21T00:07:58;3.80;;;3.47;;
29168;SDS011;16219;42.864;23.360;2023-03-21T00:10:25;3.45;;;2.72;;
29168;SDS011;16219;42.864;23.360;2023-03-21T00:12:52;2.40;;;2.30;;
29168;SDS011;16219;42.864;23.360;2023-03-21T00:15:22;5.03;;;2.42;;
29168;SDS011;16219;42.864;23.360;2023-03-21T00:17:51;5.65;;;2.85;;
29168;SDS011;16219;42.864;23.360;2023-03-21T00:20:29;3.65;;;2.50;;
29168;SDS011;16219;42.864;23.360;2023-03-21T00:22:58;5.30;;;2.28;;
29168;SDS011;16219;42.864;23.360;2023-03-21T00:25:25;3.83;;;3.03;;
29168;SDS011;16219;42.864;23.360;2023-03-21T00:27:52;4.88;;;3.63;;
29168;SDS011;16219;42.864;23.360;2023-03-21T00:30:20;2.78;;;2.55;;
29168;SDS011;16219;42.864;23.360;2023-03-21T00:32:48;2.13;;;1.95;;
29168;SDS011;16219;42.864;23.360;2023-03-21T00:35:17;2.85;;;2.63;;
29168;SDS011;16219;42.864;23.360;2023-03-21T00:37:44;5.75;;;1.95;;
29168;SDS011;16219;42.864;23.360;2023-03-21T00:40:11;2.35;;;1.75;;
29168;SDS011;16219;42.864;23.360;2023-03-21T00:42:39;2.55;;;2.35;;
29168;SDS011;16219;42.864;23.360;2023-03-21T00:45:06;3.65;;;2.30;;
29168;SDS011;16219;42.864;23.360;2023-03-21T00:47:34;6.03;;;3.22;;
29168;SDS011;16219;42.864;23.360;2023-03-21T00:50:02;6.80;;;3.20;;
29168;SDS011;16219;42.864;23.360;2023-03-21T00:52:31;1.95;;;1.85;;
29168;SDS011;16219;42.864;23.360;2023-03-21T00:54:58;6.72;;;3.30;;
29168;SDS011;16219;42.864;23.360;2023-03-21T00:57:26;8.18;;;3.80;;
29168;SDS011;16219;42.864;23.360;2023-03-21T00:59:55;3.33;;;2.85;;
29168;SDS011;16219;42.864;23.360;2023-03-21T01:02:23;3.33;;;2.35;;
29168;SDS011;16219;42.864;23.360;2023-03-21T01:04:51;4.32;;;3.42;;
29168;SDS011;16219;42.864;23.360;2023-03-21T01:07:18;4.53;;;2.97;;
29168;SDS011;16219;42.864;23.360;2023-03-21T01:09:47;2.63;;;2.42;;
29168;SDS011;16219;42.864;23.360;2023-03-21T01:12:20;6.55;;;2.17;;
29168;SDS011;16219;42.864;23.360;2023-03-21T01:14:47;2.03;;;1.80;;
29168;SDS011;16219;42.864;23.360;2023-03-21T01:17:15;5.18;;;2.50;;
29168;SDS011;16219;42.864;23.360;2023-03-21T01:19:42;3.10;;;2.15;;
29168;SDS011;16219;42.864;23.360;2023-03-21T01:22:08;6.75;;;3.78;;
29168;SDS011;16219;42.864;23.360;2023-03-21T01:24:36;3.83;;;2.85;;
29168;SDS011;16219;42.864;23.360;2023-03-21T01:27:04;4.47;;;2.65;;
29168;SDS011;16219;42.864;23.360;2023-03-21T01:29:32;3.85;;;2.33;;
29168;SDS011;16219;42.864;23.360;2023-03-21T01:31:59;4.40;;;3.00;;
29168;SDS011;16219;42.864;23.360;2023-03-21T01:34:26;1.80;;;1.70;;
29168;SDS011;16219;42.864;23.360;2023-03-21T01:36:54;2.83;;;1.58;;
29168;SDS011;16219;42.864;23.360;2023-03-21T01:39:21;2.53;;;2.33;;
29168;SDS011;16219;42.864;23.360;2023-03-21T01:41:49;2.67;;;1.77;;
29168;SDS011;16219;42.864;23.360;2023-03-21T01:47:29;1.48;;;1.38;;
29168;SDS011;16219;42.864;23.360;2023-03-21T01:50:04;1.70;;;1.40;;
29168;SDS011;16219;42.864;23.360;2023-03-21T01:52:43;2.85;;;2.30;;
29168;SDS011;16219;42.864;23.360;2023-03-21T01:55:26;4.07;;;2.33;;
29168;SDS011;16219;42.864;23.360;2023-03-21T01:58:12;1.05;;;1.00;;
29168;SDS011;16219;42.864;23.360;2023-03-21T02:00:57;2.95;;;2.20;;
29168;SDS011;16219;42.864;23.360;2023-03-21T02:03:40;5.95;;;2.95;;
29168;SDS011;16219;42.864;23.360;2023-03-21T02:06:24;3.35;;;2.70;;
29168;SDS011;16219;42.864;23.360;2023-03-21T02:09:07;3.15;;;2.08;;
29168;SDS011;16219;42.864;23.360;2023-03-21T02:11:39;3.00;;;2.08;;
29168;SDS011;16219;42.864;23.360;2023-03-21T02:14:12;1.85;;;1.67;;
29168;SDS011;16219;42.864;23.360;2023-03-21T02:16:53;1.77;;;1.63;;
29168;SDS011;16219;42.864;23.360;2023-03-21T02:19:56;4.15;;;1.90;;
29168;SDS011;16219;42.864;23.360;2023-03-21T02:29:02;2.07;;;1.73;;
29168;SDS011;16219;42.864;23.360;2023-03-21T02:31:38;1.73;;;1.50;;
29168;SDS011;16219;42.864;23.360;2023-03-21T02:37:22;2.97;;;1.75;;
29168;SDS011;16219;42.864;23.360;2023-03-21T02:39:54;2.45;;;1.80;;
29168;SDS011;16219;42.864;23.360;2023-03-21T02:42:33;2.03;;;1.40;;
29168;SDS011;16219;42.864;23.360;2023-03-21T02:45:11;2.83;;;2.30;;
29168;SDS011;16219;42.864;23.360;2023-03-21T02:47:54;2.38;;;2.17;;
29168;SDS011;16219;42.864;23.360;2023-03-21T02:50:25;1.60;;;1.50;;
29168;SDS011;16219;42.864;23.360;2023-03-21T02:52:59;1.73;;;1.63;;
29168;SDS011;16219;42.864;23.360;2023-03-21T02:55:30;2.20;;;2.00;;
29168;SDS011;16219;42.864;23.360;2023-03-21T02:58:02;1.90;;;1.75;;
29168;SDS011;16219;42.864;23.360;2023-03-21T03:00:31;1.17;;;1.17;;
29168;SDS011;16219;42.864;23.360;2023-03-21T03:03:01;2.25;;;2.05;;
29168;SDS011;16219;42.864;23.360;2023-03-21T03:05:29;1.83;;;1.70;;
29168;SDS011;16219;42.864;23.360;2023-03-21T03:08:05;1.75;;;1.52;;
29168;SDS011;16219;42.864;23.360;2023-03-21T03:10:50;2.10;;;1.48;;
29168;SDS011;16219;42.864;23.360;2023-03-21T03:13:32;4.18;;;1.95;;
29168;SDS011;16219;42.864;23.360;2023-03-21T03:16:13;2.72;;;2.53;;
29168;SDS011;16219;42.864;23.360;2023-03-21T03:18:51;2.30;;;1.90;;
29168;SDS011;16219;42.864;23.360;2023-03-21T03:21:21;2.15;;;1.92;;
29168;SDS011;16219;42.864;23.360;2023-03-21T03:23:58;1.05;;;1.02;;
29168;SDS011;16219;42.864;23.360;2023-03-21T03:26:30;2.03;;;1.70;;
29168;SDS011;16219;42.864;23.360;2023-03-21T03:29:03;2.03;;;1.35;;
29168;SDS011;16219;42.864;23.360;2023-03-21T03:31:35;2.60;;;1.63;;
29168;SDS011;16219;42.864;23.360;2023-03-21T03:34:08;1.90;;;1.73;;
29168;SDS011;16219;42.864;23.360;2023-03-21T03:36:42;1.35;;;1.25;;
29168;SDS011;16219;42.864;23.360;2023-03-21T03:39:15;2.60;;;1.90;;
29168;SDS011;16219;42.864;23.360;2023-03-21T03:41:52;2.05;;;1.77;;
29168;SDS011;16219;42.864;23.360;2023-03-21T03:44:28;6.38;;;1.45;;
29168;SDS011;16219;42.864;23.360;2023-03-21T03:47:03;1.70;;;1.60;;
29168;SDS011;16219;42.864;23.360;2023-03-21T03:49:35;13.35;;;1.80;;
29168;SDS011;16219;42.864;23.360;2023-03-21T03:52:08;1.45;;;1.35;;
29168;SDS011;16219;42.864;23.360;2023-03-21T03:54:44;1.95;;;1.70;;
29168;SDS011;16219;42.864;23.360;2023-03-21T03:57:14;2.35;;;1.25;;
29168;SDS011;16219;42.864;23.360;2023-03-21T03:59:43;1.52;;;1.00;;
29168;SDS011;16219;42.864;23.360;2023-03-21T04:02:32;2.38;;;2.13;;
29168;SDS011;16219;42.864;23.360;2023-03-21T04:05:01;0.82;;;0.82;;
29168;SDS011;16219;42.864;23.360;2023-03-21T04:07:29;2.80;;;1.73;;
29168;SDS011;16219;42.864;23.360;2023-03-21T04:10:01;1.30;;;1.20;;
29168;SDS011;16219;42.864;23.360;2023-03-21T04:12:35;1.13;;;1.13;;
29168;SDS011;16219;42.864;23.360;2023-03-21T04:15:21;1.95;;;1.25;;
29168;SDS011;16219;42.864;23.360;2023-03-21T04:17:53;1.98;;;1.63;;
29168;SDS011;16219;42.864;23.360;2023-03-21T04:20:22;1.45;;;1.35;;
29168;SDS011;16219;42.864;23.360;2023-03-21T04:22:49;1.67;;;1.58;;
29168;SDS011;16219;42.864;23.360;2023-03-21T04:25:18;1.67;;;1.58;;
29168;SDS011;16219;42.864;23.360;2023-03-21T04:27:45;7.82;;;2.50;;
29168;SDS011;16219;42.864;23.360;2023-03-21T04:30:31;1.58;;;1.48;;
29168;SDS011;16219;42.864;23.360;2023-03-21T04:35:33;4.72;;;1.45;;
29168;SDS011;16219;42.864;23.360;2023-03-21T04:38:02;2.65;;;1.70;;
29168;SDS011;16219;42.864;23.360;2023-03-21T04:40:31;1.52;;;1.30;;
29168;SDS011;16219;42.864;23.360;2023-03-21T04:42:59;1.55;;;1.45;;
29168;SDS011;16219;42.864;23.360;2023-03-21T04:45:26;2.25;;;1.70;;
29168;SDS011;16219;42.864;23.360;2023-03-21T04:47:54;0.88;;;0.88;;
29168;SDS011;16219;42.864;23.360;2023-03-21T04:50:21;1.27;;;1.20;;
29168;SDS011;16219;42.864;23.360;2023-03-21T04:52:49;3.28;;;2.50;;
29168;SDS011;16219;42.864;23.360;2023-03-21T04:55:18;1.27;;;1.25;;
29168;SDS011;16219;42.864;23.360;2023-03-21T04:57:47;1.00;;;1.00;;
29168;SDS011;16219;42.864;23.360;2023-03-21T05:00:15;2.35;;;1.98;;
29168;SDS011;16219;42.864;23.360;2023-03-21T05:02:42;2.22;;;1.60;;
29168;SDS011;16219;42.864;23.360;2023-03-21T05:05:10;1.08;;;1.05;;
29168;SDS011;16219;42.864;23.360;2023-03-21T05:07:37;14.70;;;5.72;;
29168;SDS011;16219;42.864;23.360;2023-03-21T05:10:05;4.03;;;3.30;;
29168;SDS011;16219;42.864;23.360;2023-03-21T05:12:38;5.88;;;4.45;;
29168;SDS011;16219;42.864;23.360;2023-03-21T05:15:08;2.25;;;2.05;;
29168;SDS011;16219;42.864;23.360;2023-03-21T05:17:36;3.50;;;2.60;;
29168;SDS011;16219;42.864;23.360;2023-03-21T05:20:03;7.07;;;3.83;;
29168;SDS011;16219;42.864;23.360;2023-03-21T05:22:33;6.28;;;4.32;;
29168;SDS011;16219;42.864;23.360;2023-03-21T05:25:07;7.18;;;4.82;;
29168;SDS011;16219;42.864;23.360;2023-03-21T05:28:08;3.25;;;2.95;;
29168;SDS011;16219;42.864;23.360;2023-03-21T05:30:36;7.63;;;3.50;;
29168;SDS011;16219;42.864;23.360;2023-03-21T05:33:05;10.52;;;4.93;;
29168;SDS011;16219;42.864;23.360;2023-03-21T05:35:33;7.18;;;3.67;;
29168;SDS011;16219;42.864;23.360;2023-03-21T05:38:04;7.65;;;4.72;;
29168;SDS011;16219;42.864;23.360;2023-03-21T05:40:45;9.35;;;4.65;;
29168;SDS011;16219;42.864;23.360;2023-03-21T05:43:12;4.88;;;3.53;;
29168;SDS011;16219;42.864;23.360;2023-03-21T05:45:41;7.82;;;4.63;;
29168;SDS011;16219;42.864;23.360;2023-03-21T05:48:09;7.72;;;4.10;;
29168;SDS011;16219;42.864;23.360;2023-03-21T05:50:52;7.25;;;4.75;;
29168;SDS011;16219;42.864;23.360;2023-03-21T05:53:22;8.30;;;6.13;;
29168;SDS011;16219;42.864;23.360;2023-03-21T05:55:49;11.75;;;4.85;;
29168;SDS011;16219;42.864;23.360;2023-03-21T05:58:35;6.47;;;2.92;;
29168;SDS011;16219;42.864;23.360;2023-03-21T06:01:05;2.63;;;2.42;;
29168;SDS011;16219;42.864;23.360;2023-03-21T06:03:34;2.10;;;2.00;;
29168;SDS011;16219;42.864;23.360;2023-03-21T06:06:06;7.00;;;2.78;;
29168;SDS011;16219;42.864;23.360;2023-03-21T06:09:00;2.33;;;1.83;;
29168;SDS011;16219;42.864;23.360;2023-03-21T06:11:29;1.40;;;1.30;;
29168;SDS011;16219;42.864;23.360;2023-03-21T06:14:26;2.30;;;1.92;;
29168;SDS011;16219;42.864;23.360;2023-03-21T06:17:09;1.25;;;1.25;;
29168;SDS011;16219;42.864;23.360;2023-03-21T06:19:42;3.72;;;2.25;;
29168;SDS011;16219;42.864;23.360;2023-03-21T06:22:16;2.70;;;2.13;;
29168;SDS011;16219;42.864;23.360;2023-03-21T06:24:43;2.08;;;1.88;;
29168;SDS011;16219;42.864;23.360;2023-03-21T06:27:11;1.38;;;1.23;;
29168;SDS011;16219;42.864;23.360;2023-03-21T06:29:56;2.30;;;1.52;;
29168;SDS011;16219;42.864;23.360;2023-03-21T06:32:26;1.83;;;1.60;;
29168;SDS011;16219;42.864;23.360;2023-03-21T06:34:57;3.45;;;1.83;;
29168;SDS011;16219;42.864;23.360;2023-03-21T06:37:24;2.00;;;1.90;;
29168;SDS011;16219;42.864;23.360;2023-03-21T06:39:52;1.45;;;1.35;;
29168;SDS011;16219;42.864;23.360;2023-03-21T06:42:20;1.98;;;1.60;;
29168;SDS011;16219;42.864;23.360;2023-03-21T06:44:47;1.30;;;1.20;;
29168;SDS011;16219;42.864;23.360;2023-03-21T06:47:15;1.45;;;1.35;;
29168;SDS011;16219;42.864;23.360;2023-03-21T06:49:45;3.22;;;2.45;;
29168;SDS011;16219;42.864;23.360;2023-03-21T06:52:12;2.25;;;1.20;;
29168;SDS011;16219;42.864;23.360;2023-03-21T06:54:40;1.50;;;1.40;;
29168;SDS011;16219;42.864;23.360;2023-03-21T06:57:09;2.17;;;1.42;;
29168;SDS011;16219;42.864;23.360;2023-03-21T06:59:38;2.58;;;1.80;;
29168;SDS011;16219;42.864;23.360;2023-03-21T07:02:28;9.68;;;2.80;;
29168;SDS011;16219;42.864;23.360;2023-03-21T07:05:08;22.15;;;6.82;;
29168;SDS011;16219;42.864;23.360;2023-03-21T07:07:36;2.15;;;1.85;;
29168;SDS011;16219;42.864;23.360;2023-03-21T07:10:03;1.05;;;1.05;;
29168;SDS011;16219;42.864;23.360;2023-03-21T07:12:40;4.10;;;3.05;;
29168;SDS011;16219;42.864;23.360;2023-03-21T07:15:14;2.97;;;1.85;;
29168;SDS011;16219;42.864;23.360;2023-03-21T07:17:44;2.47;;;2.03;;
29168;SDS011;16219;42.864;23.360;2023-03-21T07:20:13;15.95;;;2.20;;
29168;SDS011;16219;42.864;23.360;2023-03-21T07:22:40;2.00;;;1.73;;
29168;SDS011;16219;42.864;23.360;2023-03-21T07:25:08;2.40;;;1.65;;
29168;SDS011;16219;42.864;23.360;2023-03-21T07:27:37;4.45;;;2.78;;
29168;SDS011;16219;42.864;23.360;2023-03-21T07:30:05;2.55;;;2.35;;
29168;SDS011;16219;42.864;23.360;2023-03-21T07:32:34;15.30;;;3.38;;
29168;SDS011;16219;42.864;23.360;2023-03-21T07:35:03;1.80;;;1.48;;
29168;SDS011;16219;42.864;23.360;2023-03-21T07:37:33;1.65;;;1.13;;
29168;SDS011;16219;42.864;23.360;2023-03-21T07:40:00;3.22;;;2.00;;
29168;SDS011;16219;42.864;23.360;2023-03-21T07:42:34;2.05;;;1.65;;
29168;SDS011;16219;42.864;23.360;2023-03-21T07:45:01;2.88;;;1.70;;
29168;SDS011;16219;42.864;23.360;2023-03-21T07:47:32;1.67;;;1.58;;
29168;SDS011;16219;42.864;23.360;2023-03-21T07:49:59;1.30;;;1.27;;
29168;SDS011;16219;42.864;23.360;2023-03-21T07:52:28;1.40;;;1.30;;
29168;SDS011;16219;42.864;23.360;2023-03-21T07:54:58;1.42;;;1.40;;
29168;SDS011;16219;42.864;23.360;2023-03-21T07:57:25;1.58;;;1.20;;
29168;SDS011;16219;42.864;23.360;2023-03-21T07:59:52;1.35;;;1.27;;
29168;SDS011;16219;42.864;23.360;2023-03-21T08:02:19;1.38;;;1.23;;
29168;SDS011;16219;42.864;23.360;2023-03-21T08:04:46;2.00;;;1.77;;
29168;SDS011;16219;42.864;23.360;2023-03-21T08:07:13;2.58;;;1.73;;
29168;SDS011;16219;42.864;23.360;2023-03-21T08:09:41;1.48;;;1.38;;
29168;SDS011;16219;42.864;23.360;2023-03-21T08:12:10;1.83;;;1.50;;
29168;SDS011;16219;42.864;23.360;2023-03-21T08:14:37;1.40;;;1.30;;
29168;SDS011;16219;42.864;23.360;2023-03-21T08:17:04;2.03;;;1.23;;
29168;SDS011;16219;42.864;23.360;2023-03-21T08:19:33;3.88;;;1.58;;
29168;SDS011;16219;42.864;23.360;2023-03-21T08:22:01;1.73;;;1.55;;
29168;SDS011;16219;42.864;23.360;2023-03-21T08:24:30;1.15;;;0.95;;
29168;SDS011;16219;42.864;23.360;2023-03-21T08:26:58;4.00;;;1.48;;
29168;SDS011;16219;42.864;23.360;2023-03-21T08:29:27;3.05;;;1.35;;
29168;SDS011;16219;42.864;23.360;2023-03-21T08:31:54;1.95;;;1.77;;
29168;SDS011;16219;42.864;23.360;2023-03-21T08:34:22;3.08;;;1.83;;
29168;SDS011;16219;42.864;23.360;2023-03-21T08:36:49;1.67;;;1.45;;
29168;SDS011;16219;42.864;23.360;2023-03-21T08:39:16;2.08;;;1.40;;
29168;SDS011;16219;42.864;23.360;2023-03-21T08:41:43;1.95;;;1.33;;
29168;SDS011;16219;42.864;23.360;2023-03-21T08:44:09;1.30;;;1.25;;
29168;SDS011;16219;42.864;23.360;2023-03-21T08:46:38;4.57;;;2.05;;
29168;SDS011;16219;42.864;23.360;2023-03-21T08:49:05;1.58;;;0.98;;
29168;SDS011;16219;42.864;23.360;2023-03-21T08:51:32;1.77;;;1.67;;
29168;SDS011;16219;42.864;23.360;2023-03-21T08:54:01;1.45;;;1.35;;
29168;SDS011;16219;42.864;23.360;2023-03-21T08:56:28;2.83;;;1.98;;
29168;SDS011;16219;42.864;23.360;2023-03-21T08:58:55;2.10;;;1.55;;
29168;SDS011;16219;42.864;23.360;2023-03-21T09:01:23;2.50;;;1.60;;
29168;SDS011;16219;42.864;23.360;2023-03-21T09:03:51;1.60;;;1.50;;
29168;SDS011;16219;42.864;23.360;2023-03-21T09:06:18;5.07;;;2.03;;
29168;SDS011;16219;42.864;23.360;2023-03-21T09:08:45;1.23;;;1.10;;
29168;SDS011;16219;42.864;23.360;2023-03-21T09:11:16;2.50;;;2.10;;
29168;SDS011;16219;42.864;23.360;2023-03-21T09:13:43;2.45;;;2.25;;
29168;SDS011;16219;42.864;23.360;2023-03-21T09:16:10;2.47;;;1.50;;
29168;SDS011;16219;42.864;23.360;2023-03-21T09:18:37;1.73;;;1.63;;
29168;SDS011;16219;42.864;23.360;2023-03-21T09:21:12;2.38;;;1.23;;
29168;SDS011;16219;42.864;23.360;2023-03-21T09:23:40;3.15;;;2.25;;
29168;SDS011;16219;42.864;23.360;2023-03-21T09:26:09;6.05;;;2.00;;
29168;SDS011;16219;42.864;23.360;2023-03-21T09:28:36;1.85;;;1.63;;
29168;SDS011;16219;42.864;23.360;2023-03-21T09:31:05;2.15;;;1.08;;
29168;SDS011;16219;42.864;23.360;2023-03-21T09:33:36;1.45;;;1.35;;
29168;SDS011;16219;42.864;23.360;2023-03-21T09:36:04;4.85;;;2.50;;
29168;SDS011;16219;42.864;23.360;2023-03-21T09:38:37;1.63;;;1.48;;
29168;SDS011;16219;42.864;23.360;2023-03-21T09:41:08;3.42;;;1.88;;
29168;SDS011;16219;42.864;23.360;2023-03-21T09:43:47;2.17;;;1.95;;
29168;SDS011;16219;42.864;23.360;2023-03-21T09:46:26;1.42;;;1.25;;
29168;SDS011;16219;42.864;23.360;2023-03-21T09:49:01;1.77;;;1.52;;
29168;SDS011;16219;42.864;23.360;2023-03-21T09:51:33;1.50;;;1.23;;
29168;SDS011;16219;42.864;23.360;2023-03-21T09:54:07;4.72;;;1.98;;
29168;SDS011;16219;42.864;23.360;2023-03-21T09:56:38;5.80;;;3.17;;
29168;SDS011;16219;42.864;23.360;2023-03-21T09:59:09;1.52;;;1.42;;
29168;SDS011;16219;42.864;23.360;2023-03-21T10:01:45;4.60;;;2.03;;
29168;SDS011;16219;42.864;23.360;2023-03-21T10:04:14;1.42;;;1.23;;
29168;SDS011;16219;42.864;23.360;2023-03-21T10:06:43;1.85;;;1.35;;
29168;SDS011;16219;42.864;23.360;2023-03-21T10:09:24;2.25;;;2.08;;
29168;SDS011;16219;42.864;23.360;2023-03-21T10:11:55;4.30;;;1.95;;
29168;SDS011;16219;42.864;23.360;2023-03-21T10:14:26;2.15;;;1.15;;
29168;SDS011;16219;42.864;23.360;2023-03-21T10:16:56;1.55;;;1.45;;
29168;SDS011;16219;42.864;23.360;2023-03-21T10:19:26;4.57;;;1.77;;
29168;SDS011;16219;42.864;23.360;2023-03-21T10:21:54;2.67;;;2.15;;
29168;SDS011;16219;42.864;23.360;2023-03-21T10:24:22;3.05;;;1.77;;
29168;SDS011;16219;42.864;23.360;2023-03-21T10:26:53;2.00;;;1.75;;
29168;SDS011;16219;42.864;23.360;2023-03-21T10:29:22;1.92;;;1.73;;
29168;SDS011;16219;42.864;23.360;2023-03-21T10:31:53;1.48;;;1.35;;
29168;SDS011;16219;42.864;23.360;2023-03-21T10:34:23;2.15;;;1.95;;
29168;SDS011;16219;42.864;23.360;2023-03-21T10:36:56;2.35;;;1.95;;
29168;SDS011;16219;42.864;23.360;2023-03-21T10:39:26;2.03;;;1.80;;
29168;SDS011;16219;42.864;23.360;2023-03-21T10:41:59;2.63;;;1.70;;
29168;SDS011;16219;42.864;23.360;2023-03-21T10:44:28;6.65;;;2.33;;
29168;SDS011;16219;42.864;23.360;2023-03-21T10:46:57;3.70;;;1.52;;
29168;SDS011;16219;42.864;23.360;2023-03-21T10:49:29;1.33;;;1.23;;
29168;SDS011;16219;42.864;23.360;2023-03-21T10:51:57;0.88;;;0.88;;
29168;SDS011;16219;42.864;23.360;2023-03-21T10:54:27;1.52;;;1.42;;
29168;SDS011;16219;42.864;23.360;2023-03-21T10:56:56;2.58;;;1.80;;
29168;SDS011;16219;42.864;23.360;2023-03-21T10:59:33;3.25;;;1.65;;
29168;SDS011;16219;42.864;23.360;2023-03-21T11:02:02;11.88;;;2.20;;
29168;SDS011;16219;42.864;23.360;2023-03-21T11:04:31;3.38;;;1.90;;
29168;SDS011;16219;42.864;23.360;2023-03-21T11:07:00;3.03;;;1.17;;
29168;SDS011;16219;42.864;23.360;2023-03-21T11:09:43;1.20;;;1.05;;
29168;SDS011;16219;42.864;23.360;2023-03-21T11:12:13;1.95;;;1.27;;
29168;SDS011;16219;42.864;23.360;2023-03-21T11:14:42;3.78;;;2.30;;
29168;SDS011;16219;42.864;23.360;2023-03-21T11:17:20;3.10;;;1.52;;
29168;SDS011;16219;42.864;23.360;2023-03-21T11:27:50;0.90;;;0.90;;
29168;SDS011;16219;42.864;23.360;2023-03-21T11:30:20;1.38;;;1.23;;
29168;SDS011;16219;42.864;23.360;2023-03-21T11:32:50;2.03;;;1.05;;
29168;SDS011;16219;42.864;23.360;2023-03-21T11:35:20;0.95;;;0.95;;
29168;SDS011;16219;42.864;23.360;2023-03-21T11:37:50;3.13;;;1.20;;
29168;SDS011;16219;42.864;23.360;2023-03-21T11:40:19;0.63;;;0.60;;
29168;SDS011;16219;42.864;23.360;2023-03-21T11:42:48;1.52;;;1.38;;
29168;SDS011;16219;42.864;23.360;2023-03-21T11:45:18;1.58;;;1.38;;
29168;SDS011;16219;42.864;23.360;2023-03-21T11:47:47;1.50;;;1.00;;
29168;SDS011;16219;42.864;23.360;2023-03-21T11:50:31;0.60;;;0.60;;
29168;SDS011;16219;42.864;23.360;2023-03-21T11:55:59;0.82;;;0.70;;
29168;SDS011;16219;42.864;23.360;2023-03-21T11:58:38;1.20;;;1.10;;
29168;SDS011;16219;42.864;23.360;2023-03-21T12:01:17;1.50;;;1.33;;
29168;SDS011;16219;42.864;23.360;2023-03-21T12:03:52;0.98;;;0.95;;
29168;SDS011;16219;42.864;23.360;2023-03-21T12:06:30;0.60;;;0.60;;
29168;SDS011;16219;42.864;23.360;2023-03-21T12:09:02;1.25;;;1.15;;
29168;SDS011;16219;42.864;23.360;2023-03-21T12:11:42;1.77;;;1.63;;
29168;SDS011;16219;42.864;23.360;2023-03-21T12:14:25;2.05;;;1.08;;
29168;SDS011;16219;42.864;23.360;2023-03-21T12:17:03;1.00;;;0.88;;
29168;SDS011;16219;42.864;23.360;2023-03-21T12:19:39;1.17;;;1.10;;
29168;SDS011;16219;42.864;23.360;2023-03-21T12:22:27;1.08;;;1.00;;
29168;SDS011;16219;42.864;23.360;2023-03-21T12:25:00;0.85;;;0.85;;
29168;SDS011;16219;42.864;23.360;2023-03-21T12:27:36;1.30;;;1.08;;
29168;SDS011;16219;42.864;23.360;2023-03-21T12:30:15;1.90;;;0.88;;
29168;SDS011;16219;42.864;23.360;2023-03-21T12:33:07;1.20;;;1.10;;
29168;SDS011;16219;42.864;23.360;2023-03-21T12:35:48;1.23;;;0.80;;
29168;SDS011;16219;42.864;23.360;2023-03-21T12:38:32;1.50;;;1.30;;
29168;SDS011;16219;42.864;23.360;2023-03-21T12:41:11;0.82;;;0.82;;
29168;SDS011;16219;42.864;23.360;2023-03-21T12:43:47;2.03;;;0.57;;
29168;SDS011;16219;42.864;23.360;2023-03-21T12:46:22;0.82;;;0.52;;
29168;SDS011;16219;42.864;23.360;2023-03-21T12:48:54;1.50;;;1.15;;
29168;SDS011;16219;42.864;23.360;2023-03-21T12:51:26;2.33;;;1.08;;
29168;SDS011;16219;42.864;23.360;2023-03-21T12:54:05;1.23;;;1.13;;
29168;SDS011;16219;42.864;23.360;2023-03-21T12:56:39;0.70;;;0.70;;
29168;SDS011;16219;42.864;23.360;2023-03-21T12:59:18;1.85;;;0.75;;
29168;SDS011;16219;42.864;23.360;2023-03-21T13:01:52;4.68;;;1.60;;
29168;SDS011;16219;42.864;23.360;2023-03-21T13:04:43;4.95;;;1.25;;
29168;SDS011;16219;42.864;23.360;2023-03-21T13:07:17;0.90;;;0.90;;
29168;SDS011;16219;42.864;23.360;2023-03-21T13:09:49;6.53;;;1.10;;
29168;SDS011;16219;42.864;23.360;2023-03-21T13:12:34;0.77;;;0.77;;
29168;SDS011;16219;42.864;23.360;2023-03-21T13:18:00;2.17;;;1.13;;
29168;SDS011;16219;42.864;23.360;2023-03-21T13:20:39;1.13;;;1.00;;
29168;SDS011;16219;42.864;23.360;2023-03-21T13:23:12;3.10;;;0.82;;
29168;SDS011;16219;42.864;23.360;2023-03-21T13:25:41;0.35;;;0.35;;
29168;SDS011;16219;42.864;23.360;2023-03-21T13:28:15;0.65;;;0.65;;
29168;SDS011;16219;42.864;23.360;2023-03-21T13:30:46;0.98;;;0.98;;
29168;SDS011;16219;42.864;23.360;2023-03-21T13:33:18;0.85;;;0.85;;
29168;SDS011;16219;42.864;23.360;2023-03-21T13:35:53;6.65;;;0.95;;
29168;SDS011;16219;42.864;23.360;2023-03-21T13:38:25;1.48;;;1.00;;
29168;SDS011;16219;42.864;23.360;2023-03-21T13:40:56;0.40;;;0.40;;
29168;SDS011;16219;42.864;23.360;2023-03-21T13:43:30;2.85;;;0.88;;
29168;SDS011;16219;42.864;23.360;2023-03-21T13:46:04;0.45;;;0.45;;
29168;SDS011;16219;42.864;23.360;2023-03-21T13:48:40;0.82;;;0.82;;
29168;SDS011;16219;42.864;23.360;2023-03-21T13:54:15;2.58;;;1.27;;
29168;SDS011;16219;42.864;23.360;2023-03-21T13:56:48;0.40;;;0.40;;
29168;SDS011;16219;42.864;23.360;2023-03-21T13:59:17;4.07;;;1.20;;
29168;SDS011;16219;42.864;23.360;2023-03-21T14:02:03;2.17;;;0.90;;
29168;SDS011;16219;42.864;23.360;2023-03-21T14:04:51;0.57;;;0.57;;
29168;SDS011;16219;42.864;23.360;2023-03-21T14:07:22;0.50;;;0.50;;
29168;SDS011;16219;42.864;23.360;2023-03-21T14:09:52;1.38;;;1.27;;
29168;SDS011;16219;42.864;23.360;2023-03-21T14:12:22;1.45;;;1.00;;
29168;SDS011;16219;42.864;23.360;2023-03-21T14:14:52;0.43;;;0.43;;
29168;SDS011;16219;42.864;23.360;2023-03-21T14:17:26;0.52;;;0.47;;
29168;SDS011;16219;42.864;23.360;2023-03-21T14:19:58;1.08;;;1.02;;
29168;SDS011;16219;42.864;23.360;2023-03-21T14:22:34;1.27;;;1.08;;
29168;SDS011;16219;42.864;23.360;2023-03-21T14:25:02;0.95;;;0.85;;
29168;SDS011;16219;42.864;23.360;2023-03-21T14:27:30;2.40;;;1.38;;
29168;SDS011;16219;42.864;23.360;2023-03-21T14:30:02;1.20;;;0.65;;
29168;SDS011;16219;42.864;23.360;2023-03-21T14:32:31;0.75;;;0.75;;
29168;SDS011;16219;42.864;23.360;2023-03-21T14:35:02;0.85;;;0.85;;
29168;SDS011;16219;42.864;23.360;2023-03-21T14:37:30;1.10;;;1.00;;
29168;SDS011;16219;42.864;23.360;2023-03-21T14:39:59;2.45;;;1.27;;
29168;SDS011;16219;42.864;23.360;2023-03-21T14:42:33;1.05;;;0.82;;
29168;SDS011;16219;42.864;23.360;2023-03-21T14:45:05;7.15;;;1.27;;
29168;SDS011;16219;42.864;23.360;2023-03-21T14:47:39;0.82;;;0.82;;
29168;SDS011;16219;42.864;23.360;2023-03-21T14:50:09;0.55;;;0.55;;
29168;SDS011;16219;42.864;23.360;2023-03-21T14:52:37;1.02;;;1.00;;
29168;SDS011;16219;42.864;23.360;2023-03-21T14:55:10;2.28;;;1.00;;
29168;SDS011;16219;42.864;23.360;2023-03-21T14:57:41;0.55;;;0.55;;
29168;SDS011;16219;42.864;23.360;2023-03-21T15:00:21;0.65;;;0.65;;
29168;SDS011;16219;42.864;23.360;2023-03-21T15:02:50;0.88;;;0.88;;
29168;SDS011;16219;42.864;23.360;2023-03-21T15:05:21;1.25;;;1.10;;
29168;SDS011;16219;42.864;23.360;2023-03-21T15:07:51;2.33;;;0.95;;
29168;SDS011;16219;42.864;23.360;2023-03-21T15:10:22;0.40;;;0.40;;
29168;SDS011;16219;42.864;23.360;2023-03-21T15:12:51;1.30;;;0.80;;
29168;SDS011;16219;42.864;23.360;2023-03-21T15:15:21;0.77;;;0.43;;
29168;SDS011;16219;42.864;23.360;2023-03-21T15:17:49;0.47;;;0.47;;
29168;SDS011;16219;42.864;23.360;2023-03-21T15:20:20;0.85;;;0.85;;
29168;SDS011;16219;42.864;23.360;2023-03-21T15:22:52;0.52;;;0.52;;
29168;SDS011;16219;42.864;23.360;2023-03-21T15:25:22;0.90;;;0.90;;
29168;SDS011;16219;42.864;23.360;2023-03-21T15:27:53;1.33;;;1.05;;
29168;SDS011;16219;42.864;23.360;2023-03-21T15:30:22;1.17;;;0.88;;
29168;SDS011;16219;42.864;23.360;2023-03-21T15:32:52;0.82;;;0.82;;